Mira, Louisiana
Current Conditions -  °F | °C
As of 10:53 AM on Friday 31 Oct 2014 (Local Time) from KDTN Reporting Station
Clear Clear  
Wind Chill: 64°   Ceiling: Unl
Heat Index: 64°   Visibility: 10mi
Dew Point: 44°   Wind: 12mph
Humidity: 48%   Direction: 350°N
Pressure: 30.21"   Gusts: 21mph
Location:  32.9743°N, 93.8778°W
Report Text: KDTN 311553Z 35010G18KT 10SM CLR 18/07 A3021 RMK AO2 SLP227 T01780067
Loading
Personal Weather Stations






























Interactive Weather Map
Tropical Storm Tracking
New forecast layout! Learn more

10-Day Weather Forecast

Advertisements
Track Severe Weather on mobile